Time;durP1;ratioP1;P1;durP2;ratioP2;P2;SDS_P1;SDS_P2;PMS_P1;PMS_P2;Temp;Humidity;BMP_temperature;BMP_pressure;BME280_temperature;BME280_humidity;BME280_pressure;Samples;Min_cycle;Max_cycle;Signal;HPM_P1;HPM_P2
2023/07/22 00:01:35;;;;;;;11.30;5.47;;;;;;;23.75;50.43;100189.14;126905;1086;104184;-82
2023/07/22 00:04:03;;;;;;;11.67;5.73;;;;;;;23.74;51.18;100203.44;126980;1086;102291;-81
2023/07/22 00:06:32;;;;;;;11.63;5.83;;;;;;;23.74;51.90;100208.80;127002;1086;104197;-81
2023/07/22 00:09:00;;;;;;;13.20;5.60;;;;;;;23.75;51.97;100215.03;126806;1086;101991;-81
2023/07/22 00:11:29;;;;;;;11.93;5.50;;;;;;;23.75;52.22;100197.18;126924;1086;102259;-81
2023/07/22 00:13:58;;;;;;;12.43;5.63;;;;;;;23.75;52.85;100205.22;127013;1086;102064;-81
2023/07/22 00:16:29;;;;;;;14.43;6.03;;;;;;;23.74;53.06;100202.58;126946;1086;104188;-80
2023/07/22 00:18:57;;;;;;;11.97;5.70;;;;;;;23.75;52.99;100201.63;127002;1086;104031;-80
2023/07/22 00:21:26;;;;;;;9.33;5.53;;;;;;;23.72;53.13;100197.25;126831;1086;104203;-80
2023/07/22 00:23:54;;;;;;;11.13;5.70;;;;;;;23.74;53.06;100203.44;126861;1086;104159;-81
2023/07/22 00:26:23;;;;;;;10.70;5.33;;;;;;;23.73;53.75;100196.31;126993;1086;104223;-81
2023/07/22 00:28:52;;;;;;;13.07;5.87;;;;;;;23.71;54.18;100186.57;126662;1086;102128;-80
2023/07/22 00:31:21;;;;;;;11.87;5.63;;;;;;;23.71;54.39;100173.18;126833;1086;102105;-81
2023/07/22 00:33:50;;;;;;;12.63;5.43;;;;;;;23.70;54.27;100172.31;126673;1086;101921;-81
2023/07/22 00:36:18;;;;;;;13.40;5.77;;;;;;;23.70;54.50;100166.95;126828;1086;104255;-80
2023/07/22 00:38:47;;;;;;;12.67;5.80;;;;;;;23.71;54.80;100160.66;126920;1086;104153;-81
2023/07/22 00:41:15;;;;;;;11.17;5.83;;;;;;;23.72;54.71;100158.84;126912;1086;102017;-80
2023/07/22 00:43:44;;;;;;;12.60;5.30;;;;;;;23.71;54.70;100159.78;126964;1086;102098;-80
2023/07/22 00:46:13;;;;;;;10.90;5.20;;;;;;;23.72;55.41;100153.48;126552;1086;104270;-80
2023/07/22 00:48:43;;;;;;;8.30;5.47;;;;;;;23.71;54.93;100152.63;126758;1086;101965;-80
2023/07/22 00:51:11;;;;;;;13.43;5.30;;;;;;;23.74;54.78;100138.28;126863;1086;102000;-80
2023/07/22 00:53:40;;;;;;;10.93;5.60;;;;;;;23.74;55.37;100130.25;126855;1086;104188;-81
2023/07/22 00:56:08;;;;;;;9.47;5.17;;;;;;;23.74;55.17;100131.12;126668;1086;104225;-80
2023/07/22 00:58:37;;;;;;;8.50;5.00;;;;;;;23.74;55.25;100128.44;126625;1086;104233;-81
2023/07/22 01:01:05;;;;;;;8.60;5.10;;;;;;;23.75;55.25;100116.81;126893;1086;101956;-80
2023/07/22 01:03:34;;;;;;;10.87;5.13;;;;;;;23.77;55.48;100116.78;126898;1086;118824;-80
2023/07/22 01:06:04;;;;;;;10.50;4.90;;;;;;;23.77;55.97;100114.10;126893;1086;104203;-80
2023/07/22 01:08:35;;;;;;;9.93;5.13;;;;;;;23.77;55.50;100111.42;126782;1086;104232;-81
2023/07/22 01:11:04;;;;;;;9.37;4.63;;;;;;;23.76;55.52;100113.20;126582;1086;102121;-80
2023/07/22 01:13:32;;;;;;;11.97;5.50;;;;;;;23.77;55.69;100119.45;126625;1086;101982;-79
2023/07/22 01:16:01;;;;;;;11.27;5.27;;;;;;;23.76;55.85;100120.36;126809;1086;104216;-79
2023/07/22 01:18:30;;;;;;;10.47;4.83;;;;;;;23.76;55.89;100129.27;126484;1089;102350;-79
2023/07/22 01:20:59;;;;;;;8.50;4.73;;;;;;;23.76;55.82;100136.44;126918;1086;102376;-80
2023/07/22 01:23:28;;;;;;;12.40;4.90;;;;;;;23.75;56.12;100146.28;126854;1086;104275;-79
2023/07/22 01:25:58;;;;;;;10.20;5.05;;;;;;;23.74;56.40;100146.32;126699;1086;104274;-80
2023/07/22 01:28:27;;;;;;;9.37;5.00;;;;;;;23.73;56.27;100141.87;126670;1086;104254;-80
2023/07/22 01:30:55;;;;;;;8.80;4.97;;;;;;;23.72;56.51;100134.74;126831;1086;101860;-79
2023/07/22 01:33:25;;;;;;;13.13;4.90;;;;;;;23.71;56.34;100144.58;126777;1086;103555;-80
2023/07/22 01:35:55;;;;;;;8.87;4.73;;;;;;;23.69;56.37;100125.00;126806;1086;104260;-80
2023/07/22 01:38:23;;;;;;;8.40;4.40;;;;;;;23.68;56.27;100136.63;126562;1086;102720;-80
2023/07/22 01:40:52;;;;;;;10.83;4.80;;;;;;;23.66;56.40;100136.66;126764;1086;101936;-80
2023/07/22 01:43:21;;;;;;;9.67;5.00;;;;;;;23.67;56.65;100133.08;126812;1086;101973;-80
2023/07/22 01:45:50;;;;;;;9.57;4.50;;;;;;;23.67;56.52;100130.39;126688;1086;102451;-81
2023/07/22 01:48:18;;;;;;;7.57;4.60;;;;;;;23.66;56.83;100125.95;126949;1086;101857;-80
2023/07/22 01:50:47;;;;;;;10.17;4.80;;;;;;;23.66;56.73;100119.72;126866;1086;104255;-79
2023/07/22 01:53:16;;;;;;;9.57;4.57;;;;;;;23.64;56.71;100119.76;126883;1086;104202;-80
2023/07/22 01:55:45;;;;;;;7.97;4.37;;;;;;;23.64;56.84;100122.44;126711;1086;102143;-81
2023/07/22 01:58:13;;;;;;;7.67;4.20;;;;;;;23.62;56.75;100134.99;126838;1086;104226;-82
2023/07/22 02:00:42;;;;;;;7.83;4.20;;;;;;;23.59;57.23;100145.78;126731;1086;104213;-80
2023/07/22 02:03:11;;;;;;;8.30;4.47;;;;;;;23.57;57.07;100149.39;126658;1086;104229;-80
2023/07/22 02:05:39;;;;;;;8.40;4.50;;;;;;;23.55;57.19;100143.20;127025;1086;101822;-80
2023/07/22 02:08:08;;;;;;;7.20;4.47;;;;;;;23.53;57.45;100129.86;126970;1086;104149;-80
2023/07/22 02:10:37;;;;;;;8.60;4.60;;;;;;;23.54;57.21;100133.41;126854;1086;104127;-81
2023/07/22 02:13:06;;;;;;;7.57;4.40;;;;;;;23.53;57.72;100127.18;126996;1086;104050;-80
2023/07/22 02:15:35;;;;;;;8.43;4.60;;;;;;;23.51;57.53;100126.31;127114;1086;102070;-82
2023/07/22 02:18:04;;;;;;;7.97;4.37;;;;;;;23.50;57.89;100130.80;126915;1086;104251;-80
2023/07/22 02:20:32;;;;;;;7.37;4.07;;;;;;;23.47;57.48;100127.32;126751;1086;104212;-80
2023/07/22 02:23:01;;;;;;;9.30;4.75;;;;;;;23.49;57.71;100125.48;126825;1086;102706;-81
2023/07/22 02:25:29;;;;;;;6.93;4.17;;;;;;;23.48;57.78;100126.38;126902;1086;104266;-80
2023/07/22 02:27:58;;;;;;;11.63;4.60;;;;;;;23.47;58.07;100125.52;127071;1086;104209;-81
2023/07/22 02:30:27;;;;;;;8.73;4.43;;;;;;;23.45;58.17;100130.03;126991;1086;101823;-82
2023/07/22 02:32:56;;;;;;;9.40;5.00;;;;;;;23.42;58.28;100132.78;126773;1086;104235;-80
2023/07/22 02:35:24;;;;;;;8.30;4.47;;;;;;;23.42;58.57;100140.81;127033;1086;104037;-79
2023/07/22 02:37:53;;;;;;;8.10;4.40;;;;;;;23.41;58.81;100131.01;127069;1086;102390;-80
2023/07/22 02:40:21;;;;;;;8.37;4.43;;;;;;;23.41;58.63;100138.17;126802;1086;101945;-80
2023/07/22 02:42:50;;;;;;;7.23;4.53;;;;;;;23.39;58.81;100130.17;126764;1086;102217;-81
2023/07/22 02:45:19;;;;;;;8.43;4.70;;;;;;;23.39;58.66;100132.85;126999;1086;104257;-79
2023/07/22 02:47:47;;;;;;;7.80;4.57;;;;;;;23.39;59.54;100137.30;127091;1085;101732;-81
2023/07/22 02:50:16;;;;;;;9.63;4.80;;;;;;;23.39;59.65;100134.63;126708;1086;104191;-80
2023/07/22 02:52:45;;;;;;;9.33;4.60;;;;;;;23.37;59.78;100128.44;126847;1086;102108;-80
2023/07/22 02:55:18;;;;;;;7.53;4.27;;;;;;;23.35;59.89;100122.25;126766;1086;102124;-80
2023/07/22 02:57:48;;;;;;;8.48;4.78;;;;;;;23.35;59.83;100119.57;126833;1086;102237;-80
2023/07/22 03:00:23;;;;;;;6.47;4.10;;;;;;;23.36;60.16;100113.28;126759;1086;102350;-80
2023/07/22 03:02:53;;;;;;;9.17;4.10;;;;;;;23.37;60.56;100107.89;127240;1086;104190;-79
2023/07/22 03:05:22;;;;;;;9.67;4.70;;;;;;;23.40;60.42;100098.92;127149;1086;104158;-80
2023/07/22 03:07:58;;;;;;;9.07;4.07;;;;;;;23.42;60.24;100094.40;126918;1086;104172;-80
2023/07/22 03:10:28;;;;;;;9.67;4.27;;;;;;;23.44;60.37;100079.20;126950;1086;101971;-80
2023/07/22 03:12:59;;;;;;;7.93;4.10;;;;;;;23.47;60.82;100068.41;127015;1086;102060;-80
2023/07/22 03:15:28;;;;;;;10.80;4.67;;;;;;;23.50;60.61;100073.70;126993;1086;104261;-80
2023/07/22 03:17:59;;;;;;;9.80;4.50;;;;;;;23.53;60.70;100073.63;126666;1086;104162;-80
2023/07/22 03:20:27;;;;;;;8.63;4.43;;;;;;;23.55;60.51;100066.42;126966;1086;104177;-80
2023/07/22 03:22:56;;;;;;;7.70;4.10;;;;;;;23.59;60.70;100070.80;126907;1086;104218;-80
2023/07/22 03:25:24;;;;;;;8.80;4.27;;;;;;;23.58;60.50;100063.66;126992;1086;101957;-80
2023/07/22 03:27:53;;;;;;;10.10;4.60;;;;;;;23.60;60.60;100066.30;126652;1086;102088;-80
2023/07/22 03:30:23;;;;;;;8.30;4.17;;;;;;;23.60;60.82;100068.98;127029;1086;102070;-80
2023/07/22 03:32:51;;;;;;;8.53;4.20;;;;;;;23.61;60.93;100062.72;126835;1086;104270;-80
2023/07/22 03:35:20;;;;;;;6.53;3.93;;;;;;;23.63;60.83;100066.23;127118;1086;104203;-81
2023/07/22 03:37:49;;;;;;;6.67;4.20;;;;;;;23.63;61.04;100072.45;127007;1086;104216;-79
2023/07/22 03:40:19;;;;;;;8.63;4.50;;;;;;;23.62;61.05;100076.08;126975;1086;102038;-80
2023/07/22 03:42:50;;;;;;;10.87;4.23;;;;;;;23.63;61.20;100071.59;127040;1086;104179;-79
2023/07/22 03:45:19;;;;;;;9.87;4.20;;;;;;;23.60;61.04;100072.53;127094;1086;102066;-82
2023/07/22 03:47:54;;;;;;;6.63;4.00;;;;;;;23.59;61.28;100070.80;126837;1086;102046;-81
2023/07/22 03:50:22;;;;;;;8.03;3.90;;;;;;;23.59;61.60;100078.83;127031;1086;104261;-79
2023/07/22 03:52:51;;;;;;;9.67;4.57;;;;;;;23.58;61.92;100084.22;126964;1086;102054;-80
2023/07/22 03:55:20;;;;;;;10.03;4.23;;;;;;;23.59;61.68;100086.86;127104;1086;104155;-81
2023/07/22 03:57:49;;;;;;;6.23;3.90;;;;;;;23.60;61.79;100088.60;126888;1086;104108;-80
2023/07/22 04:00:18;;;;;;;6.50;3.97;;;;;;;23.63;61.69;100099.23;126795;1086;104018;-81
2023/07/22 04:02:46;;;;;;;9.60;4.00;;;;;;;23.62;62.03;100092.14;127057;1086;104165;-81
2023/07/22 04:05:17;;;;;;;11.47;5.03;;;;;;;23.62;61.96;100112.66;126791;1086;104162;-81
2023/07/22 04:07:46;;;;;;;9.27;4.00;;;;;;;23.64;62.01;100118.89;126907;1086;104341;-81
2023/07/22 04:10:15;;;;;;;10.47;4.57;;;;;;;23.65;61.99;100124.20;127014;1086;102251;-81
2023/07/22 04:12:43;;;;;;;7.47;4.50;;;;;;;23.68;61.97;100137.53;126957;1086;104315;-81
2023/07/22 04:15:12;;;;;;;7.73;4.17;;;;;;;23.71;61.81;100133.00;126998;1086;104184;-82
2023/07/22 04:17:41;;;;;;;7.80;4.07;;;;;;;23.74;62.31;100119.53;127030;1086;101831;-79
2023/07/22 04:20:11;;;;;;;7.80;4.10;;;;;;;23.79;62.07;100117.61;126989;1086;104558;-81
2023/07/22 04:22:40;;;;;;;10.30;4.77;;;;;;;23.85;62.25;100114.81;127004;1086;104220;-80
2023/07/22 04:25:10;;;;;;;9.07;4.20;;;;;;;23.90;62.08;100123.61;127033;1086;104200;-82
2023/07/22 04:27:38;;;;;;;8.07;4.40;;;;;;;23.94;62.91;100121.75;127026;1086;104078;-80
2023/07/22 04:30:09;;;;;;;9.13;4.30;;;;;;;24.00;62.71;100113.55;127063;1086;102203;-80
2023/07/22 04:32:38;;;;;;;6.47;4.30;;;;;;;24.02;63.11;100117.94;127192;1086;101784;-82
2023/07/22 04:35:09;;;;;;;7.60;4.33;;;;;;;24.01;63.00;100120.66;127230;1086;102117;-80
2023/07/22 04:37:38;;;;;;;7.33;4.20;;;;;;;23.98;63.65;100113.59;128051;1086;104397;-82
2023/07/22 04:40:13;;;;;;;13.93;4.50;;;;;;;23.99;63.77;100107.30;127608;1086;104175;-81
2023/07/22 04:42:44;;;;;;;7.17;4.20;;;;;;;24.02;63.96;100112.57;127402;1086;104183;-82
2023/07/22 04:45:13;;;;;;;9.60;4.53;;;;;;;24.05;63.80;100100.91;127203;1086;102012;-82
2023/07/22 04:47:44;;;;;;;7.83;4.30;;;;;;;24.07;64.03;100098.19;127221;1086;102018;-79
2023/07/22 04:50:12;;;;;;;10.53;4.30;;;;;;;24.07;63.97;100091.02;127143;1086;104203;-79
2023/07/22 04:52:43;;;;;;;9.13;4.57;;;;;;;24.08;64.25;100094.59;127028;1086;104207;-81
2023/07/22 04:55:12;;;;;;;7.93;4.33;;;;;;;24.10;63.89;100098.97;127323;1086;101861;-81
2023/07/22 04:57:42;;;;;;;9.17;4.30;;;;;;;24.10;64.04;100101.66;127274;1086;102409;-82
2023/07/22 05:00:14;;;;;;;6.00;3.93;;;;;;;24.11;63.78;100091.84;127191;1086;102459;-82
2023/07/22 05:02:43;;;;;;;8.57;4.50;;;;;;;24.11;64.26;100092.70;127304;1086;102284;-80
2023/07/22 05:05:12;;;;;;;8.57;4.50;;;;;;;24.11;64.21;100084.66;126946;1086;104216;-80
2023/07/22 05:07:41;;;;;;;7.30;4.37;;;;;;;24.12;64.14;100082.85;127541;1086;104168;-80
2023/07/22 05:10:12;;;;;;;7.93;4.30;;;;;;;24.12;64.19;100074.81;127467;1086;104158;-80
2023/07/22 05:12:40;;;;;;;8.47;4.50;;;;;;;24.11;64.10;100062.36;127208;1086;101789;-83
2023/07/22 05:15:11;;;;;;;7.57;4.10;;;;;;;24.11;64.26;100052.50;127305;1086;104048;-81
2023/07/22 05:17:40;;;;;;;7.57;3.97;;;;;;;24.14;64.16;100047.06;127503;1086;104277;-80
2023/07/22 05:20:10;;;;;;;7.70;4.23;;;;;;;24.14;64.51;100046.19;128422;1085;101723;-81
2023/07/22 05:22:39;;;;;;;9.53;4.10;;;;;;;24.15;64.26;100039.88;128148;1086;101806;-80
2023/07/22 05:25:09;;;;;;;9.50;4.70;;;;;;;24.16;64.39;100029.12;127900;1086;102226;-81
2023/07/22 05:27:40;;;;;;;6.73;4.50;;;;;;;24.17;64.57;100027.34;127731;1086;102360;-79
2023/07/22 05:30:10;;;;;;;9.83;4.50;;;;;;;24.19;64.68;100022.80;127636;1086;104303;-78
2023/07/22 05:32:39;;;;;;;7.83;4.27;;;;;;;24.25;65.01;100014.59;127399;1086;104188;-80
2023/07/22 05:35:08;;;;;;;9.43;4.57;;;;;;;24.31;64.68;100018.88;127132;1086;104168;-79
2023/07/22 05:37:37;;;;;;;8.90;4.60;;;;;;;24.38;64.81;100017.79;126896;1086;102044;-80
2023/07/22 05:40:09;;;;;;;6.47;4.07;;;;;;;24.45;64.62;100018.48;127299;1085;102048;-80
2023/07/22 05:42:37;;;;;;;9.03;4.53;;;;;;;24.55;64.66;100019.98;127578;1086;104197;-81
2023/07/22 05:45:07;;;;;;;7.80;4.30;;;;;;;24.64;64.91;100011.70;127165;1085;102109;-80
2023/07/22 05:47:36;;;;;;;10.20;4.50;;;;;;;24.70;64.86;100011.52;127493;1085;102047;-78
2023/07/22 05:50:07;;;;;;;6.50;4.33;;;;;;;24.77;64.83;100006.83;127337;1086;104155;-79
2023/07/22 05:52:35;;;;;;;7.53;4.50;;;;;;;24.80;64.39;100006.73;126859;1089;101960;-80
2023/07/22 05:55:05;;;;;;;9.30;4.30;;;;;;;24.84;64.42;100011.09;127108;1086;104251;-80
2023/07/22 05:57:33;;;;;;;7.97;4.37;;;;;;;24.87;64.41;100018.14;127020;1086;104168;-81
2023/07/22 06:00:03;;;;;;;7.93;4.37;;;;;;;24.89;64.20;100005.58;126975;1086;103379;-82
2023/07/22 06:02:40;;;;;;;6.57;4.17;;;;;;;24.98;64.27;100007.08;127315;1086;102082;-80
2023/07/22 06:05:09;;;;;;;8.90;4.47;;;;;;;25.05;64.18;100001.47;127322;1086;104325;-82
2023/07/22 06:07:38;;;;;;;9.50;4.40;;;;;;;25.15;64.19;99998.48;127165;1086;104203;-82
2023/07/22 06:10:09;;;;;;;9.63;4.73;;;;;;;25.21;64.80;100022.45;127118;1086;104232;-85
2023/07/22 06:12:38;;;;;;;9.53;4.50;;;;;;;25.20;64.68;100026.08;127186;1086;104309;-82
2023/07/22 06:15:08;;;;;;;10.83;4.90;;;;;;;25.21;64.58;100020.66;127067;1086;104210;-81
2023/07/22 06:17:37;;;;;;;10.87;5.10;;;;;;;25.22;64.78;100008.11;126911;1086;104200;-84
2023/07/22 06:20:08;;;;;;;6.80;4.23;;;;;;;25.21;64.86;100017.08;127073;1086;104254;-82
2023/07/22 06:22:37;;;;;;;11.83;4.80;;;;;;;25.21;65.50;100009.03;127525;1086;102092;-80
2023/07/22 06:25:07;;;;;;;12.00;4.70;;;;;;;25.16;65.92;100005.63;127557;1086;104213;-83
2023/07/22 06:27:36;;;;;;;11.40;4.80;;;;;;;25.08;67.49;99997.81;127261;1086;101922;-81
2023/07/22 06:30:07;;;;;;;8.93;4.80;;;;;;;24.96;67.49;99993.70;127253;1086;101797;-84
2023/07/22 06:32:37;;;;;;;8.37;4.70;;;;;;;24.85;67.94;99974.39;127910;1086;102179;-84
2023/07/22 06:35:07;;;;;;;12.33;4.90;;;;;;;24.76;68.09;99946.03;127155;1086;104274;-82
2023/07/22 06:37:36;;;;;;;8.90;4.77;;;;;;;24.74;68.27;99930.02;127363;1086;104197;-82
2023/07/22 06:40:07;;;;;;;11.50;5.00;;;;;;;24.72;68.73;99912.20;126848;1086;101914;-82
2023/07/22 06:42:38;;;;;;;9.20;4.67;;;;;;;24.68;68.93;99911.44;126968;1086;101865;-82
2023/07/22 06:45:09;;;;;;;10.17;4.77;;;;;;;24.64;69.40;99908.91;127019;1086;104098;-81
2023/07/22 06:47:38;;;;;;;10.33;4.73;;;;;;;24.61;69.52;99912.55;127217;1086;104152;-82
2023/07/22 06:50:07;;;;;;;10.03;4.60;;;;;;;24.61;69.82;99925.09;127487;1086;102185;-83
2023/07/22 06:52:36;;;;;;;11.33;5.13;;;;;;;24.63;69.76;99942.88;127496;1086;102041;-84
2023/07/22 06:55:06;;;;;;;7.93;4.77;;;;;;;24.70;69.76;99948.95;127316;1086;104055;-85
2023/07/22 06:57:35;;;;;;;10.03;5.23;;;;;;;24.75;70.29;99955.91;127052;1086;104185;-81
2023/07/22 07:00:05;;;;;;;10.73;4.87;;;;;;;24.86;70.14;99949.33;127219;1086;101794;-81
2023/07/22 07:02:33;;;;;;;8.70;5.20;;;;;;;24.99;70.31;99947.12;127236;1086;101784;-80
2023/07/22 07:05:02;;;;;;;8.73;4.47;;;;;;;25.08;70.03;99950.37;127165;1086;102243;-81
2023/07/22 07:07:31;;;;;;;10.07;4.80;;;;;;;25.11;69.96;99960.14;127082;1086;104194;-83
2023/07/22 07:10:01;;;;;;;10.93;4.70;;;;;;;25.18;70.11;99944.70;127058;1086;104235;-79
2023/07/22 07:12:29;;;;;;;9.23;4.73;;;;;;;25.29;70.01;99942.55;126860;1086;101987;-79
2023/07/22 07:14:58;;;;;;;10.37;4.50;;;;;;;25.43;69.94;99951.03;127058;1086;101996;-80
2023/07/22 07:17:27;;;;;;;8.63;4.80;;;;;;;25.55;70.12;99949.72;127118;1086;104228;-81
2023/07/22 07:19:55;;;;;;;9.50;4.83;;;;;;;25.59;69.90;99950.50;127068;1086;102229;-82
2023/07/22 07:22:24;;;;;;;9.60;4.47;;;;;;;25.68;69.73;99928.69;127240;1086;101845;-80
2023/07/22 07:24:52;;;;;;;9.00;4.43;;;;;;;25.77;69.66;99933.73;127133;1086;104261;-80
2023/07/22 07:27:21;;;;;;;11.83;4.67;;;;;;;25.90;69.46;99941.31;127052;1085;102114;-81
2023/07/22 07:29:50;;;;;;;10.97;4.13;;;;;;;26.07;69.60;99936.25;127079;1086;101897;-82
2023/07/22 07:32:18;;;;;;;6.90;3.77;;;;;;;26.25;68.48;99940.05;127058;1086;104162;-79
2023/07/22 07:34:47;;;;;;;6.87;4.17;;;;;;;26.42;68.26;99944.77;127170;1086;104207;-81
2023/07/22 07:37:15;;;;;;;9.30;4.20;;;;;;;26.63;68.49;99939.48;126959;1086;102131;-80
2023/07/22 07:39:44;;;;;;;8.70;4.30;;;;;;;26.90;67.91;99934.85;126984;1086;102109;-80
2023/07/22 07:42:15;;;;;;;7.30;4.20;;;;;;;27.24;66.61;99931.63;127052;1086;102325;-81
2023/07/22 07:44:43;;;;;;;9.47;4.50;;;;;;;27.53;66.47;99934.91;126759;1086;102441;-80
2023/07/22 07:47:12;;;;;;;5.70;4.10;;;;;;;27.81;65.35;99920.20;127040;1086;102385;-80
2023/07/22 07:49:41;;;;;;;8.43;4.00;;;;;;;28.14;65.20;99922.34;127166;1086;104102;-81
2023/07/22 07:52:09;;;;;;;5.50;4.10;;;;;;;28.32;63.03;99918.78;127088;1086;104263;-83
2023/07/22 07:54:38;;;;;;;5.97;4.03;;;;;;;28.28;60.95;99924.39;127101;1086;104234;-80
2023/07/22 07:57:07;;;;;;;6.37;3.70;;;;;;;28.32;61.40;99929.57;127165;1086;102762;-82
2023/07/22 07:59:36;;;;;;;8.23;3.80;;;;;;;28.35;60.86;99925.87;127280;1086;104228;-80
2023/07/22 08:02:08;;;;;;;7.77;3.90;;;;;;;28.23;58.40;99912.95;126941;1086;101893;-82
2023/07/22 08:04:37;;;;;;;6.22;3.92;;;;;;;28.20;58.03;99918.48;127220;1086;104309;-83
2023/07/22 08:07:07;;;;;;;9.17;3.70;;;;;;;28.25;57.66;99925.43;127389;1086;101887;-83
2023/07/22 08:09:36;;;;;;;11.10;4.10;;;;;;;28.46;57.05;99926.22;127212;1086;102134;-81
2023/07/22 08:12:05;;;;;;;5.47;3.90;;;;;;;28.75;57.13;99917.69;126834;1086;102313;-82
2023/07/22 08:14:34;;;;;;;10.47;4.47;;;;;;;28.79;55.83;99924.70;127111;1086;104188;-81
2023/07/22 08:17:03;;;;;;;10.97;4.03;;;;;;;28.90;55.41;99932.28;127106;1086;102453;-83
2023/07/22 08:19:32;;;;;;;8.87;4.50;;;;;;;29.12;55.63;99927.53;126872;1086;101826;-83
2023/07/22 08:22:00;;;;;;;9.37;4.07;;;;;;;29.36;55.58;99938.10;126807;1086;102205;-82
2023/07/22 08:24:29;;;;;;;11.30;4.30;;;;;;;29.54;54.57;99933.55;126980;1086;104317;-80
2023/07/22 08:26:58;;;;;;;7.33;4.23;;;;;;;29.62;53.50;99915.09;127117;1086;101830;-81
2023/07/22 08:29:26;;;;;;;8.93;4.17;;;;;;;29.65;54.00;99931.16;127089;1086;101928;-82
2023/07/22 08:31:55;;;;;;;10.40;4.27;;;;;;;29.71;53.67;99922.72;127029;1086;101803;-82
2023/07/22 08:34:23;;;;;;;7.17;4.20;;;;;;;29.87;53.44;99928.24;127115;1086;102248;-80
2023/07/22 08:36:55;;;;;;;10.13;4.47;;;;;;;30.02;52.99;99920.25;127036;1086;104285;-82
2023/07/22 08:39:23;;;;;;;9.25;4.20;;;;;;;30.22;52.57;99927.27;126811;1086;102010;-81
2023/07/22 08:41:54;;;;;;;9.93;4.30;;;;;;;30.44;52.32;99927.84;127055;1086;104298;-80
2023/07/22 08:44:30;;;;;;;9.93;4.27;;;;;;;30.60;51.72;99913.44;127029;1086;104235;-81
2023/07/22 08:47:00;;;;;;;9.73;4.27;;;;;;;30.80;51.14;99912.30;127101;1086;101944;-80
2023/07/22 08:49:29;;;;;;;8.93;4.60;;;;;;;30.96;51.08;99901.44;127126;1086;104105;-82
2023/07/22 08:51:58;;;;;;;9.13;4.30;;;;;;;31.14;50.89;99916.64;127029;1086;102006;-81
2023/07/22 08:54:27;;;;;;;6.07;4.20;;;;;;;31.34;50.17;99903.75;127101;1086;104337;-81
2023/07/22 08:56:56;;;;;;;11.17;5.00;;;;;;;31.35;49.19;99900.95;127147;1086;104229;-83
2023/07/22 08:59:25;;;;;;;7.13;4.00;;;;;;;31.53;49.32;99898.97;127085;1086;102077;-85
2023/07/22 09:01:54;;;;;;;8.53;4.10;;;;;;;31.72;49.43;99903.27;127012;1085;102460;-81
2023/07/22 09:04:26;;;;;;;6.43;4.20;;;;;;;31.71;49.14;99896.09;126924;1086;104171;-81
2023/07/22 09:06:55;;;;;;;8.60;4.43;;;;;;;31.68;48.89;99912.55;127031;1086;104197;-81
2023/07/22 09:09:24;;;;;;;5.93;3.67;;;;;;;31.60;47.84;99899.49;127118;1086;102182;-83
2023/07/22 09:11:54;;;;;;;7.60;4.00;;;;;;;31.50;48.19;99896.41;127390;1086;102098;-81
2023/07/22 09:14:24;;;;;;;11.10;4.60;;;;;;;31.54;47.92;99903.44;127113;1086;104181;-81
2023/07/22 09:16:53;;;;;;;8.53;4.27;;;;;;;31.72;48.02;99908.69;127214;1086;104194;-82
2023/07/22 09:19:24;;;;;;;8.57;4.27;;;;;;;31.81;47.47;99886.42;128181;1086;101893;-84
2023/07/22 09:21:52;;;;;;;9.93;4.03;;;;;;;31.87;47.61;99896.02;126945;1086;104200;-82
2023/07/22 09:24:25;;;;;;;7.87;4.07;;;;;;;31.94;47.61;99891.08;127848;1086;101687;-84
2023/07/22 09:26:54;;;;;;;8.23;4.30;;;;;;;31.99;46.72;99883.51;127149;1086;102096;-82
2023/07/22 09:29:34;;;;;;;10.50;4.13;;;;;;;32.11;46.37;99871.91;127083;1086;104760;-82
2023/07/22 09:32:03;;;;;;;7.43;4.10;;;;;;;32.21;46.03;99881.22;126782;1087;101883;-81
2023/07/22 09:34:32;;;;;;;7.73;4.07;;;;;;;32.18;44.86;99864.23;127007;1086;104165;-81
2023/07/22 09:37:01;;;;;;;6.33;4.13;;;;;;;32.26;44.44;99861.92;126924;1086;104349;-81
2023/07/22 09:39:30;;;;;;;7.97;3.97;;;;;;;32.45;44.84;99867.01;127126;1085;101999;-82
2023/07/22 09:42:01;;;;;;;9.03;4.10;;;;;;;32.48;44.03;99874.95;127137;1086;102688;-82
2023/07/22 09:44:31;;;;;;;10.27;3.80;;;;;;;32.58;43.84;99878.81;127291;1086;101803;-81
2023/07/22 09:47:07;;;;;;;8.20;3.83;;;;;;;32.69;43.67;99872.67;127458;1086;101820;-84
2023/07/22 09:49:42;;;;;;;5.27;3.67;;;;;;;32.58;43.25;99880.64;127145;1086;104171;-80
2023/07/22 09:52:12;;;;;;;7.03;4.00;;;;;;;32.33;42.44;99884.95;127020;1086;102098;-82
2023/07/22 09:54:51;;;;;;;6.43;3.63;;;;;;;32.15;42.49;99878.89;127093;1086;101980;-82
2023/07/22 09:57:21;;;;;;;7.43;3.87;;;;;;;31.97;42.39;99867.33;126837;1086;104213;-82
2023/07/22 09:59:52;;;;;;;7.23;3.70;;;;;;;31.86;42.58;99875.28;126973;1086;101999;-83
2023/07/22 10:02:22;;;;;;;10.53;3.90;;;;;;;31.79;42.59;99874.80;127144;1085;104424;-81
2023/07/22 10:04:54;;;;;;;7.17;3.90;;;;;;;31.79;42.85;99877.52;127110;1086;104277;-80
2023/07/22 10:07:23;;;;;;;8.77;4.00;;;;;;;31.67;42.64;99875.57;127124;1086;102050;-83
2023/07/22 10:09:55;;;;;;;8.37;4.30;;;;;;;31.54;42.83;99876.33;127103;1086;104210;-82
2023/07/22 10:12:25;;;;;;;9.07;4.33;;;;;;;31.43;43.07;99865.25;127127;1086;104274;-84
2023/07/22 10:14:53;;;;;;;8.20;4.23;;;;;;;31.47;43.22;99860.50;126968;1086;102047;-87
2023/07/22 10:17:22;;;;;;;9.50;4.13;;;;;;;31.56;43.18;99857.25;127341;1086;102168;-83
2023/07/22 10:19:53;;;;;;;5.40;3.80;;;;;;;31.65;43.27;99851.26;127045;1086;104232;-82
2023/07/22 10:22:22;;;;;;;8.03;3.60;;;;;;;31.66;42.58;99857.55;127417;1086;104162;-80
2023/07/22 10:24:52;;;;;;;8.67;4.10;;;;;;;31.71;42.64;99848.16;127239;1086;104252;-84
2023/07/22 10:27:22;;;;;;;11.60;4.40;;;;;;;31.77;42.54;99851.45;127318;1086;102184;-82
2023/07/22 10:29:50;;;;;;;7.97;4.20;;;;;;;31.84;42.50;99850.11;126891;1086;102015;-83
2023/07/22 10:32:19;;;;;;;7.87;4.37;;;;;;;31.86;42.61;99861.72;127413;1086;104228;-82
2023/07/22 10:34:47;;;;;;;7.60;4.10;;;;;;;31.85;42.58;99855.43;128568;1086;101819;-82
2023/07/22 10:37:21;;;;;;;7.57;4.47;;;;;;;31.98;42.79;99849.23;127724;1086;102072;-84
2023/07/22 10:39:50;;;;;;;9.77;4.30;;;;;;;32.07;41.88;99864.92;127415;1086;102519;-84
2023/07/22 10:42:26;;;;;;;11.33;4.23;;;;;;;32.04;41.92;99848.84;127275;1086;102303;-84
2023/07/22 10:44:54;;;;;;;6.97;4.23;;;;;;;32.16;42.39;99844.47;126923;1086;104638;-81
2023/07/22 10:47:37;;;;;;;6.97;4.10;;;;;;;32.16;42.03;99839.91;127283;1086;102077;-83
2023/07/22 10:50:10;;;;;;;6.30;3.60;;;;;;;32.14;41.46;99839.14;128118;1086;101896;-83
2023/07/22 10:52:46;;;;;;;6.57;3.60;;;;;;;32.18;41.57;99837.09;127196;1086;101834;-81
2023/07/22 10:55:19;;;;;;;8.83;3.90;;;;;;;32.32;41.23;99844.34;127062;1086;102243;-83
2023/07/22 10:57:53;;;;;;;6.00;3.80;;;;;;;32.39;41.41;99851.13;127173;1086;104309;-83
2023/07/22 11:00:22;;;;;;;5.50;3.80;;;;;;;32.36;41.09;99845.89;127227;1086;101790;-83
2023/07/22 11:03:12;;;;;;;6.73;3.87;;;;;;;32.41;40.65;99847.34;127378;1086;104198;-83
2023/07/22 11:05:53;;;;;;;10.73;3.50;;;;;;;32.50;40.14;99845.84;127347;1085;107894;-85
2023/07/22 11:08:37;;;;;;;7.00;3.93;;;;;;;32.54;39.77;99844.68;127280;1086;102006;-82
2023/07/22 11:11:05;;;;;;;4.37;3.43;;;;;;;32.65;40.30;99849.43;127611;1086;102221;-83
2023/07/22 11:13:39;;;;;;;7.60;3.90;;;;;;;32.67;40.05;99849.33;127297;1086;102366;-79
2023/07/22 11:16:12;;;;;;;5.17;3.40;;;;;;;32.68;40.04;99849.23;126819;1086;119239;-83
2023/07/22 11:18:41;;;;;;;9.13;3.70;;;;;;;32.74;39.84;99853.36;126994;1086;101800;-83
2023/07/22 11:21:11;;;;;;;4.67;3.60;;;;;;;32.69;39.44;99852.80;127220;1086;104241;-83